Time;durP1;ratioP1;P1;durP2;ratioP2;P2;SDS_P1;SDS_P2;PMS_P1;PMS_P2;Temp;Humidity;BMP_temperature;BMP_pressure;BME280_temperature;BME280_humidity;BME280_pressure;Samples;Min_cycle;Max_cycle;Signal;HPM_P1;HPM_P2
2023/11/23 00:00:05;;;;;;;23.95;21.77;;;5.70;99.90;;;;;;5025397;28;20118;-77
2023/11/23 00:02:33;;;;;;;23.73;21.63;;;5.70;99.90;;;;;;5057824;28;20033;-77
2023/11/23 00:05:00;;;;;;;23.85;21.85;;;5.70;99.90;;;;;;5017724;28;20041;-76
2023/11/23 00:07:27;;;;;;;24.27;21.80;;;5.70;99.90;;;;;;5019063;28;20048;-77
2023/11/23 00:09:54;;;;;;;25.60;22.60;;;5.70;99.90;;;;;;5027495;28;20041;-77
2023/11/23 00:12:21;;;;;;;23.02;20.75;;;5.70;99.90;;;;;;5028963;28;20045;-77
2023/11/23 00:14:48;;;;;;;24.42;22.35;;;5.70;99.90;;;;;;5015121;28;20103;-77
2023/11/23 00:17:15;;;;;;;24.52;22.30;;;5.70;99.90;;;;;;5016341;28;20037;-77
2023/11/23 00:19:42;;;;;;;23.70;21.60;;;5.70;99.90;;;;;;5014147;28;20041;-77
2023/11/23 00:22:09;;;;;;;23.92;21.67;;;5.70;99.90;;;;;;5027883;28;20045;-77
2023/11/23 00:24:35;;;;;;;24.27;22.05;;;5.70;99.90;;;;;;5014086;28;20328;-77
2023/11/23 00:27:03;;;;;;;25.58;22.88;;;5.70;99.90;;;;;;5028076;28;20045;-77
2023/11/23 00:29:30;;;;;;;24.92;22.05;;;5.70;99.90;;;;;;5028499;28;20045;-77
2023/11/23 00:31:59;;;;;;;24.52;22.33;;;5.70;99.90;;;;;;5011782;28;20048;-77
2023/11/23 00:34:26;;;;;;;26.23;23.13;;;5.70;99.90;;;;;;5027572;28;20046;-77
2023/11/23 00:36:53;;;;;;;26.40;22.52;;;5.70;99.90;;;;;;5010336;28;20057;-77
2023/11/23 00:39:21;;;;;;;25.02;22.60;;;5.70;99.90;;;;;;5027720;28;20037;-77
2023/11/23 00:41:49;;;;;;;25.55;21.02;;;5.70;99.90;;;;;;5028486;28;20553;-77
2023/11/23 00:44:17;;;;;;;24.77;21.35;;;5.70;99.90;;;;;;5018772;28;20716;-77
2023/11/23 00:46:44;;;;;;;29.85;22.40;;;5.70;99.90;;;;;;5029670;28;20041;-78
2023/11/23 00:49:11;;;;;;;24.60;20.33;;;5.70;99.90;;;;;;5015406;28;20049;-77
2023/11/23 00:51:38;;;;;;;24.95;20.85;;;5.60;99.90;;;;;;5030993;28;20045;-77
2023/11/23 00:54:05;;;;;;;25.98;19.05;;;5.60;99.90;;;;;;5024225;28;20111;-75
2023/11/23 00:56:32;;;;;;;22.85;18.85;;;5.60;99.90;;;;;;5029174;28;20044;-76
2023/11/23 00:58:59;;;;;;;25.55;18.63;;;5.70;99.90;;;;;;5029138;28;20057;-77
2023/11/23 01:01:27;;;;;;;25.30;19.08;;;5.70;99.90;;;;;;5025218;28;20100;-77
2023/11/23 01:03:55;;;;;;;22.55;18.77;;;5.80;99.90;;;;;;5012046;28;20073;-77
2023/11/23 01:06:22;;;;;;;32.05;18.90;;;5.80;99.90;;;;;;5024912;28;20052;-77
2023/11/23 01:08:49;;;;;;;31.65;19.90;;;5.80;99.90;;;;;;5042391;28;20043;-78
2023/11/23 01:11:16;;;;;;;21.25;18.73;;;5.80;99.90;;;;;;5028860;28;20045;-78
2023/11/23 01:13:43;;;;;;;22.33;19.92;;;5.80;99.90;;;;;;5014256;28;20119;-78
2023/11/23 01:16:10;;;;;;;23.13;19.45;;;5.90;99.90;;;;;;5028835;28;20083;-77
2023/11/23 01:18:37;;;;;;;26.70;20.23;;;5.90;99.90;;;;;;5017907;28;20056;-77
2023/11/23 01:21:04;;;;;;;22.48;18.35;;;5.90;99.90;;;;;;5053684;28;20033;-76
2023/11/23 01:23:31;;;;;;;24.10;19.73;;;5.90;99.90;;;;;;5052659;28;20040;-77
2023/11/23 01:25:59;;;;;;;21.05;18.33;;;6.00;99.90;;;;;;5044382;28;21104;-76
2023/11/23 01:28:26;;;;;;;24.70;20.35;;;6.00;99.90;;;;;;5038680;28;20040;-77
2023/11/23 01:30:54;;;;;;;22.25;19.02;;;6.00;99.90;;;;;;5032504;28;20166;-77
2023/11/23 01:33:22;;;;;;;20.48;18.55;;;6.00;99.90;;;;;;5020557;28;20563;-77
2023/11/23 01:35:50;;;;;;;22.33;19.58;;;6.00;99.90;;;;;;5032965;28;20039;-76
2023/11/23 01:38:17;;;;;;;21.08;18.95;;;6.00;99.90;;;;;;5007374;28;20582;-77
2023/11/23 01:40:44;;;;;;;22.35;20.00;;;6.10;99.90;;;;;;5019599;28;20033;-76
2023/11/23 01:43:11;;;;;;;21.52;19.27;;;6.10;99.90;;;;;;5025354;28;20056;-76
2023/11/23 01:45:38;;;;;;;23.00;20.15;;;6.10;99.90;;;;;;5024625;28;20107;-77
2023/11/23 01:48:06;;;;;;;23.10;19.52;;;6.10;99.90;;;;;;5026692;28;20057;-76
2023/11/23 01:50:34;;;;;;;23.55;19.73;;;6.10;99.90;;;;;;5029905;28;20045;-77
2023/11/23 01:53:03;;;;;;;24.00;18.92;;;6.10;99.90;;;;;;5023612;28;20045;-76
2023/11/23 01:55:30;;;;;;;22.48;19.77;;;6.10;99.90;;;;;;5033095;28;20133;-77
2023/11/23 01:57:59;;;;;;;22.65;20.33;;;6.10;99.90;;;;;;5013825;28;20061;-76
2023/11/23 02:00:27;;;;;;;25.23;20.67;;;6.10;99.90;;;;;;5024605;28;20045;-77
2023/11/23 02:02:54;;;;;;;20.13;18.10;;;6.10;99.90;;;;;;5025810;28;20080;-76
2023/11/23 02:05:23;;;;;;;21.65;19.15;;;6.10;99.90;;;;;;5025973;28;20138;-77
2023/11/23 02:07:50;;;;;;;26.13;20.00;;;6.10;99.90;;;;;;5026467;28;20064;-76
2023/11/23 02:10:18;;;;;;;20.33;18.10;;;6.10;99.90;;;;;;5017641;28;20630;-76
2023/11/23 02:12:50;;;;;;;21.05;17.90;;;6.10;99.90;;;;;;5031185;28;20155;-76
2023/11/23 02:15:22;;;;;;;25.25;18.65;;;6.00;99.90;;;;;;5028459;28;20059;-76
2023/11/23 02:18:03;;;;;;;22.77;16.58;;;5.90;99.90;;;;;;5013968;28;20080;-77
2023/11/23 02:20:31;;;;;;;28.10;19.85;;;5.90;99.90;;;;;;5028173;28;20530;-76
2023/11/23 02:23:00;;;;;;;27.92;17.08;;;5.90;99.90;;;;;;5031362;28;20435;-77
2023/11/23 02:25:28;;;;;;;26.13;17.83;;;5.80;99.90;;;;;;5016508;28;20048;-76
2023/11/23 02:27:55;;;;;;;30.27;18.02;;;5.80;99.90;;;;;;5026772;28;20033;-76
2023/11/23 02:30:22;;;;;;;26.48;15.98;;;5.80;99.90;;;;;;5037310;28;20041;-77
2023/11/23 02:32:50;;;;;;;30.00;17.58;;;5.80;99.90;;;;;;5034407;28;20049;-77
2023/11/23 02:35:20;;;;;;;29.98;17.20;;;5.80;99.90;;;;;;5017059;28;20045;-77
2023/11/23 02:37:47;;;;;;;35.22;19.17;;;5.80;99.90;;;;;;5020135;28;20072;-78
2023/11/23 02:40:14;;;;;;;31.25;19.15;;;5.80;99.90;;;;;;5032641;28;20076;-81
2023/11/23 02:42:42;;;;;;;33.20;18.02;;;5.80;99.90;;;;;;5038632;28;20041;-78
2023/11/23 02:45:12;;;;;;;33.95;18.50;;;5.80;99.90;;;;;;5043929;28;20104;-78
2023/11/23 02:47:39;;;;;;;38.40;19.63;;;5.80;99.90;;;;;;5033200;28;20033;-78
2023/11/23 02:50:06;;;;;;;29.75;18.10;;;5.90;99.90;;;;;;5037276;28;20025;-78
2023/11/23 02:52:33;;;;;;;31.50;17.52;;;5.90;99.90;;;;;;5031336;28;20048;-79
2023/11/23 02:55:00;;;;;;;33.72;19.30;;;5.90;99.90;;;;;;5032693;28;20060;-79
2023/11/23 02:57:27;;;;;;;34.15;20.20;;;5.90;99.90;;;;;;5032188;28;20135;-78
2023/11/23 02:59:55;;;;;;;37.38;19.95;;;5.90;99.90;;;;;;4999079;28;20049;-78
2023/11/23 03:02:22;;;;;;;37.75;19.30;;;5.90;99.90;;;;;;5019304;28;20040;-78
2023/11/23 03:04:49;;;;;;;38.08;19.25;;;5.90;99.90;;;;;;5026385;28;20125;-78
2023/11/23 03:07:17;;;;;;;34.58;19.92;;;5.90;99.90;;;;;;5009545;28;20045;-78
2023/11/23 03:09:45;;;;;;;35.15;21.85;;;5.90;99.90;;;;;;5008200;28;20750;-77
2023/11/23 03:12:12;;;;;;;37.45;21.63;;;5.90;99.90;;;;;;5012052;28;20098;-77
2023/11/23 03:14:39;;;;;;;39.97;20.98;;;5.90;99.90;;;;;;5030259;28;20053;-81
2023/11/23 03:17:07;;;;;;;44.83;22.50;;;5.90;99.90;;;;;;5017029;28;20041;-80
2023/11/23 03:19:34;;;;;;;43.47;21.83;;;5.90;99.90;;;;;;5043935;28;20042;-80
2023/11/23 03:22:01;;;;;;;44.95;24.33;;;5.90;99.90;;;;;;5044344;28;20539;-79
2023/11/23 03:24:29;;;;;;;46.65;22.90;;;5.90;99.90;;;;;;5023157;28;20280;-80
2023/11/23 03:26:56;;;;;;;45.53;23.85;;;5.90;99.90;;;;;;5019171;28;20103;-81
2023/11/23 03:29:23;;;;;;;40.40;23.17;;;5.90;99.90;;;;;;5020262;28;20046;-81
2023/11/23 03:31:52;;;;;;;46.67;24.88;;;5.90;99.90;;;;;;5028998;28;20037;-78
2023/11/23 03:34:24;;;;;;;45.88;25.45;;;5.90;99.90;;;;;;5027622;28;20315;-78
2023/11/23 03:36:50;;;;;;;52.78;25.90;;;5.90;99.90;;;;;;5024098;28;20049;-79
2023/11/23 03:39:18;;;;;;;52.17;25.65;;;6.00;99.90;;;;;;5018135;28;20259;-77
2023/11/23 03:41:47;;;;;;;50.95;24.88;;;6.00;99.90;;;;;;5020549;28;20038;-79
2023/11/23 03:44:14;;;;;;;48.95;26.35;;;6.00;99.90;;;;;;5030942;28;20111;-79
2023/11/23 03:46:41;;;;;;;49.78;26.13;;;6.10;99.90;;;;;;5034535;28;20032;-78
2023/11/23 03:49:08;;;;;;;52.80;28.98;;;6.10;99.90;;;;;;5015158;28;20045;-78
2023/11/23 03:51:36;;;;;;;52.53;27.48;;;6.10;99.90;;;;;;5036924;28;20056;-77
2023/11/23 03:54:03;;;;;;;57.85;30.20;;;6.10;99.90;;;;;;5029823;28;20052;-79
2023/11/23 03:56:30;;;;;;;58.50;31.00;;;6.10;99.90;;;;;;5062778;28;20589;-79
2023/11/23 03:58:57;;;;;;;56.33;25.42;;;6.10;99.90;;;;;;5018821;28;20051;-78
2023/11/23 04:01:23;;;;;;;58.90;30.23;;;6.20;99.90;;;;;;5037569;28;20034;-79
2023/11/23 04:03:50;;;;;;;55.30;30.85;;;6.20;99.90;;;;;;5033692;28;20345;-79
2023/11/23 04:06:17;;;;;;;66.70;31.45;;;6.20;99.90;;;;;;5036496;28;20057;-78
2023/11/23 04:08:44;;;;;;;66.13;32.05;;;6.30;99.90;;;;;;5017716;28;20041;-79
2023/11/23 04:11:11;;;;;;;66.78;33.67;;;6.30;99.90;;;;;;5018611;28;20120;-80
2023/11/23 04:13:38;;;;;;;58.83;31.73;;;6.40;99.90;;;;;;5032933;28;20060;-79
2023/11/23 04:16:08;;;;;;;61.35;31.17;;;6.30;99.90;;;;;;5016567;28;20041;-79
2023/11/23 04:18:35;;;;;;;56.58;29.13;;;6.30;99.90;;;;;;5022716;28;20599;-79
2023/11/23 04:21:02;;;;;;;63.67;29.50;;;6.40;99.90;;;;;;5016642;28;20681;-80
2023/11/23 04:23:29;;;;;;;56.35;29.27;;;6.40;99.90;;;;;;5032765;28;20595;-81
2023/11/23 04:25:56;;;;;;;61.45;30.65;;;6.50;99.90;;;;;;5037895;28;20059;-80
2023/11/23 04:28:24;;;;;;;64.32;32.78;;;6.50;99.90;;;;;;5015920;28;20525;-82
2023/11/23 04:30:50;;;;;;;62.00;33.30;;;6.50;99.90;;;;;;5018152;28;20048;-81
2023/11/23 04:33:18;;;;;;;64.25;31.45;;;6.60;99.90;;;;;;5029627;28;20675;-79
2023/11/23 04:35:44;;;;;;;61.70;29.38;;;6.60;99.90;;;;;;5038004;28;20518;-79
2023/11/23 04:38:11;;;;;;;67.32;33.95;;;6.60;99.90;;;;;;5031600;28;20046;-80
2023/11/23 04:40:38;;;;;;;62.85;32.33;;;6.60;99.90;;;;;;5020467;28;20434;-80
2023/11/23 04:43:05;;;;;;;70.00;34.13;;;6.60;99.90;;;;;;5017159;28;20041;-78
2023/11/23 04:45:32;;;;;;;70.18;36.95;;;6.70;99.90;;;;;;5034780;28;20704;-79
2023/11/23 04:47:58;;;;;;;69.90;34.13;;;6.70;99.90;;;;;;5033148;28;20057;-79
2023/11/23 04:50:26;;;;;;;72.15;36.30;;;6.70;99.90;;;;;;5033011;28;20041;-78
2023/11/23 04:52:52;;;;;;;79.03;37.15;;;6.80;99.90;;;;;;5031983;28;20056;-79
2023/11/23 04:55:19;;;;;;;73.45;36.33;;;6.80;99.90;;;;;;5014400;28;20076;-78
2023/11/23 04:57:46;;;;;;;81.68;36.15;;;6.80;99.90;;;;;;5033052;28;20071;-78
2023/11/23 05:00:14;;;;;;;70.72;33.72;;;6.80;99.90;;;;;;5016444;28;20514;-78
2023/11/23 05:02:43;;;;;;;78.13;38.90;;;6.90;99.90;;;;;;5032804;28;20511;-79
2023/11/23 05:05:13;;;;;;;81.25;38.45;;;6.80;99.90;;;;;;5020409;28;20044;-79
2023/11/23 05:07:40;;;;;;;77.65;37.58;;;6.90;99.90;;;;;;5050206;28;20072;-82
2023/11/23 05:10:08;;;;;;;77.18;36.80;;;6.90;99.90;;;;;;5060201;28;20109;-81
2023/11/23 05:12:35;;;;;;;76.28;35.50;;;6.90;99.90;;;;;;5064255;28;20171;-79
2023/11/23 05:15:03;;;;;;;84.88;37.95;;;7.00;99.90;;;;;;5035696;28;20048;-79
2023/11/23 05:17:31;;;;;;;73.05;34.97;;;7.00;99.90;;;;;;5036350;28;20075;-77
2023/11/23 05:19:58;;;;;;;83.65;39.92;;;7.00;99.90;;;;;;5033141;28;20045;-78
2023/11/23 05:22:25;;;;;;;71.85;34.83;;;7.00;99.90;;;;;;5028282;28;20072;-78
2023/11/23 05:24:52;;;;;;;87.57;41.00;;;7.00;99.90;;;;;;5033760;28;20033;-78
2023/11/23 05:27:19;;;;;;;97.15;43.20;;;7.10;99.90;;;;;;5024496;28;20088;-78
2023/11/23 05:29:46;;;;;;;88.65;41.58;;;7.10;99.90;;;;;;5030976;28;20569;-78
2023/11/23 05:32:17;;;;;;;102.43;44.13;;;7.10;99.90;;;;;;5027926;28;20033;-78
2023/11/23 05:34:44;;;;;;;98.78;44.92;;;7.10;99.90;;;;;;5012318;28;20087;-78
2023/11/23 05:37:11;;;;;;;102.20;43.20;;;7.20;99.90;;;;;;5027042;28;20069;-78
2023/11/23 05:39:38;;;;;;;98.30;45.08;;;7.20;99.90;;;;;;5035185;28;20041;-79
2023/11/23 05:42:10;;;;;;;96.43;40.47;;;7.20;99.90;;;;;;5024225;28;20646;-78
2023/11/23 05:44:37;;;;;;;99.18;44.17;;;7.20;99.90;;;;;;5034173;28;20038;-78
2023/11/23 05:47:04;;;;;;;100.13;40.97;;;7.20;99.90;;;;;;5013173;28;20052;-78
2023/11/23 05:49:31;;;;;;;117.32;49.63;;;7.20;99.90;;;;;;5016852;28;20055;-78
2023/11/23 05:51:58;;;;;;;105.95;44.03;;;7.20;99.90;;;;;;5027648;28;20045;-78
2023/11/23 05:54:25;;;;;;;105.00;44.72;;;7.20;99.90;;;;;;5025444;28;21008;-77
2023/11/23 05:56:51;;;;;;;113.95;47.15;;;7.20;99.90;;;;;;5026258;28;20560;-77
2023/11/23 05:59:19;;;;;;;101.03;45.42;;;7.20;99.90;;;;;;5029773;28;20103;-76
2023/11/23 06:01:45;;;;;;;110.97;43.88;;;7.20;99.90;;;;;;5013303;28;20040;-77
2023/11/23 06:04:12;;;;;;;120.13;45.78;;;7.20;99.90;;;;;;5021615;28;20033;-76
2023/11/23 06:06:39;;;;;;;109.00;41.80;;;7.20;99.90;;;;;;5024497;28;20048;-76
2023/11/23 06:09:08;;;;;;;123.32;47.15;;;7.20;99.90;;;;;;5029667;28;20045;-76
2023/11/23 06:11:35;;;;;;;127.50;48.47;;;7.20;99.90;;;;;;5029829;28;20041;-76
2023/11/23 06:14:03;;;;;;;130.32;48.70;;;7.20;99.90;;;;;;5026047;28;20049;-76
2023/11/23 06:16:29;;;;;;;111.25;41.90;;;7.20;99.90;;;;;;5024286;28;20057;-76
2023/11/23 06:18:56;;;;;;;138.65;50.05;;;7.20;99.90;;;;;;5026001;28;20108;-76
2023/11/23 06:21:25;;;;;;;134.57;51.35;;;7.20;99.90;;;;;;5027091;28;20203;-77
2023/11/23 06:23:52;;;;;;;139.52;48.20;;;7.20;99.90;;;;;;5029439;28;20052;-77
2023/11/23 06:26:20;;;;;;;151.65;54.63;;;7.20;99.90;;;;;;5025118;28;20034;-77
2023/11/23 06:28:48;;;;;;;150.55;51.10;;;7.20;99.90;;;;;;5012458;28;20048;-76
2023/11/23 06:31:14;;;;;;;159.05;55.55;;;7.30;99.90;;;;;;5028386;28;20049;-77
2023/11/23 06:33:41;;;;;;;158.40;57.13;;;7.20;99.90;;;;;;5045150;28;20152;-76
2023/11/23 06:36:08;;;;;;;168.00;56.20;;;7.30;99.90;;;;;;5037307;28;20140;-76
2023/11/23 06:38:35;;;;;;;169.25;56.97;;;7.30;99.90;;;;;;5032962;28;20052;-77
2023/11/23 06:41:03;;;;;;;166.40;59.03;;;7.30;99.90;;;;;;5017223;28;20053;-77
2023/11/23 06:43:30;;;;;;;165.95;55.20;;;7.40;99.90;;;;;;5026620;28;20693;-77
2023/11/23 06:45:56;;;;;;;180.38;61.22;;;7.40;99.90;;;;;;5014904;28;20049;-77
2023/11/23 06:48:23;;;;;;;175.88;60.78;;;7.40;99.90;;;;;;5010470;28;20064;-77
2023/11/23 06:50:50;;;;;;;159.07;55.67;;;7.40;99.90;;;;;;5029194;28;20095;-76
2023/11/23 06:53:18;;;;;;;199.35;62.75;;;7.50;99.90;;;;;;5014834;28;20041;-78
2023/11/23 06:55:45;;;;;;;177.57;59.58;;;7.50;99.90;;;;;;5015385;28;20043;-77
2023/11/23 06:58:12;;;;;;;184.32;64.47;;;7.50;99.90;;;;;;5029088;28;20703;-77
2023/11/23 07:00:39;;;;;;;194.25;65.65;;;7.60;99.90;;;;;;5031131;28;20045;-75
2023/11/23 07:03:21;;;;;;;182.27;59.60;;;7.50;99.90;;;;;;5012342;28;20038;-76
2023/11/23 07:05:48;;;;;;;179.15;57.97;;;7.50;99.90;;;;;;5023160;28;20059;-76
2023/11/23 07:08:15;;;;;;;175.52;56.03;;;7.60;99.90;;;;;;5025963;28;20049;-74
2023/11/23 07:10:42;;;;;;;159.57;56.88;;;7.60;99.90;;;;;;5028300;28;20037;-75
2023/11/23 07:13:10;;;;;;;145.48;55.38;;;7.60;99.90;;;;;;5027770;28;20053;-75
2023/11/23 07:15:37;;;;;;;124.45;47.63;;;7.70;99.90;;;;;;5030636;28;20655;-75
2023/11/23 07:18:04;;;;;;;176.13;63.03;;;7.70;99.90;;;;;;5030351;28;20057;-75
2023/11/23 07:20:31;;;;;;;151.98;53.00;;;7.70;99.90;;;;;;5027555;28;20545;-76
2023/11/23 07:22:58;;;;;;;161.93;57.03;;;7.70;99.90;;;;;;5027047;28;20047;-75
2023/11/23 07:25:25;;;;;;;167.98;57.45;;;7.80;99.90;;;;;;5029390;28;20045;-76
2023/11/23 07:27:53;;;;;;;187.50;65.68;;;7.80;99.90;;;;;;5028912;28;20143;-75
2023/11/23 07:30:20;;;;;;;210.43;67.65;;;7.80;99.90;;;;;;5028398;28;20145;-76
2023/11/23 07:32:47;;;;;;;207.55;65.32;;;7.80;99.90;;;;;;5031217;28;20060;-75
2023/11/23 07:35:14;;;;;;;197.60;67.88;;;7.90;99.90;;;;;;5013116;28;20128;-77
2023/11/23 07:37:41;;;;;;;197.32;67.43;;;7.90;99.90;;;;;;5031458;28;20033;-75
2023/11/23 07:40:15;;;;;;;206.38;68.20;;;7.90;99.90;;;;;;5026647;28;20049;-75
2023/11/23 07:42:42;;;;;;;197.27;68.03;;;7.90;99.90;;;;;;5015498;28;20585;-75
2023/11/23 07:45:11;;;;;;;242.43;77.15;;;7.90;99.90;;;;;;5025143;28;20052;-75
2023/11/23 07:47:41;;;;;;;222.63;76.30;;;8.00;99.90;;;;;;5028620;28;20155;-75
2023/11/23 07:50:10;;;;;;;176.18;62.65;;;8.00;99.90;;;;;;5028719;28;20549;-75
2023/11/23 07:52:37;;;;;;;204.75;69.60;;;7.90;99.90;;;;;;5030083;28;20045;-75
2023/11/23 07:55:04;;;;;;;181.57;62.47;;;7.90;99.90;;;;;;5028159;28;20660;-75
2023/11/23 07:57:31;;;;;;;194.73;65.80;;;8.00;99.90;;;;;;5027716;28;20168;-75
2023/11/23 08:00:00;;;;;;;194.15;67.78;;;8.00;99.90;;;;;;5026772;28;20142;-75
2023/11/23 08:02:31;;;;;;;212.90;71.93;;;7.90;99.90;;;;;;5024812;28;20081;-74
2023/11/23 08:04:59;;;;;;;203.60;67.15;;;8.00;99.90;;;;;;5026234;28;20076;-72
2023/11/23 08:07:26;;;;;;;203.23;70.03;;;8.00;99.90;;;;;;5024562;28;20038;-72
2023/11/23 08:09:54;;;;;;;178.90;64.18;;;8.00;99.90;;;;;;5025323;28;20576;-72
2023/11/23 08:12:22;;;;;;;216.88;73.68;;;8.00;99.90;;;;;;5029459;28;20168;-71
2023/11/23 08:14:49;;;;;;;213.93;72.18;;;8.00;99.90;;;;;;5027087;28;20094;-72
2023/11/23 08:17:15;;;;;;;231.27;74.88;;;8.00;99.90;;;;;;5025714;28;20056;-71
2023/11/23 08:19:43;;;;;;;213.27;71.93;;;8.00;99.90;;;;;;5033844;28;20033;-72
2023/11/23 08:22:12;;;;;;;221.55;72.15;;;8.00;99.90;;;;;;5029981;28;20055;-72
2023/11/23 08:24:39;;;;;;;195.85;64.85;;;8.00;99.90;;;;;;5025012;28;20053;-73
2023/11/23 08:27:06;;;;;;;178.73;65.63;;;8.00;99.90;;;;;;5023954;28;20048;-72
2023/11/23 08:29:33;;;;;;;209.63;71.60;;;8.00;99.90;;;;;;5026745;28;20022;-72
2023/11/23 08:32:00;;;;;;;205.45;71.28;;;8.00;99.90;;;;;;5026176;28;20087;-72
2023/11/23 08:34:26;;;;;;;240.75;76.95;;;8.00;99.90;;;;;;5023857;28;20103;-72
2023/11/23 08:36:54;;;;;;;181.55;61.65;;;8.00;99.90;;;;;;5028838;28;20053;-71
2023/11/23 08:39:21;;;;;;;172.07;58.55;;;8.00;99.90;;;;;;5025214;28;20053;-70
2023/11/23 08:41:48;;;;;;;127.40;46.53;;;8.00;99.90;;;;;;5029932;28;20169;-71
2023/11/23 08:44:15;;;;;;;166.40;58.35;;;8.00;99.90;;;;;;5008050;28;20059;-70
2023/11/23 08:46:43;;;;;;;188.48;62.80;;;8.00;99.90;;;;;;5030092;28;20048;-72
2023/11/23 08:49:10;;;;;;;140.60;54.38;;;8.10;99.90;;;;;;5024789;28;20412;-71
2023/11/23 08:51:38;;;;;;;130.80;52.55;;;8.10;99.90;;;;;;5045410;28;20857;-70
2023/11/23 08:54:05;;;;;;;194.43;65.13;;;8.10;99.90;;;;;;5028952;28;20135;-71
2023/11/23 08:56:33;;;;;;;171.48;59.72;;;8.10;99.90;;;;;;5035342;28;20041;-70
2023/11/23 08:59:00;;;;;;;164.30;60.45;;;8.10;99.90;;;;;;5038817;28;20079;-71
2023/11/23 09:01:27;;;;;;;163.02;58.25;;;8.10;99.90;;;;;;5024862;28;20033;-72
2023/11/23 09:03:55;;;;;;;186.18;64.15;;;8.10;99.90;;;;;;5033015;28;20041;-70
2023/11/23 09:06:22;;;;;;;155.00;55.88;;;8.10;99.90;;;;;;5012917;28;21526;-72
2023/11/23 09:08:49;;;;;;;187.30;62.50;;;8.10;99.90;;;;;;5029544;28;20021;-72
2023/11/23 09:11:16;;;;;;;168.27;60.10;;;8.20;99.90;;;;;;5027961;28;20037;-70
2023/11/23 09:13:43;;;;;;;199.43;62.42;;;8.20;99.90;;;;;;5029544;28;20041;-71
2023/11/23 09:16:13;;;;;;;169.30;60.30;;;8.20;99.90;;;;;;5027683;28;20049;-72
2023/11/23 09:18:42;;;;;;;206.43;70.82;;;8.20;99.90;;;;;;5024040;28;20064;-72
2023/11/23 09:21:12;;;;;;;186.15;62.50;;;8.20;99.90;;;;;;5010849;28;20042;-71
2023/11/23 09:23:40;;;;;;;164.75;60.92;;;8.20;99.90;;;;;;5024623;28;20461;-72
2023/11/23 09:26:07;;;;;;;173.98;62.53;;;8.30;99.90;;;;;;5024332;28;20064;-71
2023/11/23 09:28:34;;;;;;;182.38;62.33;;;8.20;99.90;;;;;;5007583;28;20072;-72
2023/11/23 09:31:02;;;;;;;145.73;54.55;;;8.30;99.90;;;;;;5030308;28;20127;-72
2023/11/23 09:33:31;;;;;;;188.10;61.90;;;8.30;99.90;;;;;;5008775;28;20585;-72
2023/11/23 09:36:02;;;;;;;185.68;60.05;;;8.30;99.90;;;;;;5014467;28;20046;-71
2023/11/23 09:38:29;;;;;;;185.40;61.97;;;8.30;99.90;;;;;;5022751;28;20046;-72
2023/11/23 09:40:58;;;;;;;165.93;59.92;;;8.30;99.90;;;;;;5027154;28;20110;-71
2023/11/23 09:43:26;;;;;;;160.63;60.72;;;8.40;99.90;;;;;;5024349;28;20290;-72
2023/11/23 09:45:53;;;;;;;162.38;59.30;;;8.30;99.90;;;;;;5024321;28;20487;-73
2023/11/23 09:48:23;;;;;;;194.95;65.15;;;8.40;99.90;;;;;;5030868;28;20606;-71
2023/11/23 09:50:51;;;;;;;207.20;68.60;;;8.40;99.90;;;;;;5034207;28;20072;-70
2023/11/23 09:53:18;;;;;;;181.15;63.42;;;8.40;99.90;;;;;;5012311;28;20041;-72
2023/11/23 09:55:46;;;;;;;166.80;60.13;;;8.40;99.90;;;;;;5028084;28;20061;-73
2023/11/23 09:58:14;;;;;;;164.45;58.97;;;8.50;99.90;;;;;;5024256;28;20120;-71
2023/11/23 10:00:41;;;;;;;170.35;59.30;;;8.40;99.90;;;;;;5008373;28;20395;-72
2023/11/23 10:03:10;;;;;;;179.80;62.33;;;8.40;99.90;;;;;;5005549;28;20418;-71
2023/11/23 10:05:38;;;;;;;145.98;55.05;;;8.50;99.90;;;;;;5023722;28;20053;-72
2023/11/23 10:08:05;;;;;;;159.40;57.53;;;8.50;99.90;;;;;;5028802;28;20057;-70
2023/11/23 10:10:32;;;;;;;150.95;58.25;;;8.50;99.90;;;;;;5025343;28;20757;-72
2023/11/23 10:13:00;;;;;;;165.88;59.63;;;8.50;99.90;;;;;;5027039;28;20059;-73
2023/11/23 10:15:27;;;;;;;164.38;59.75;;;8.50;99.90;;;;;;5022351;28;20049;-73
2023/11/23 10:17:54;;;;;;;132.25;51.97;;;8.50;99.90;;;;;;5030260;28;20041;-73
2023/11/23 10:20:21;;;;;;;168.68;59.58;;;8.50;99.90;;;;;;5024774;28;27979;-71
2023/11/23 10:22:50;;;;;;;156.77;53.25;;;8.60;99.90;;;;;;5023572;28;20522;-72
2023/11/23 10:25:34;;;;;;;147.45;55.17;;;8.50;99.90;;;;;;5024611;28;20041;-72
2023/11/23 10:28:03;;;;;;;160.27;56.00;;;8.50;99.90;;;;;;5011919;28;20141;-72
2023/11/23 10:30:32;;;;;;;129.02;49.47;;;8.60;99.90;;;;;;5023689;28;20049;-72
2023/11/23 10:33:00;;;;;;;144.32;51.75;;;8.60;99.90;;;;;;5017154;28;20049;-73
2023/11/23 10:35:40;;;;;;;124.32;49.13;;;8.60;99.90;;;;;;5023714;28;20038;-72
2023/11/23 10:38:08;;;;;;;132.13;49.28;;;8.60;99.90;;;;;;5030527;28;20057;-71
2023/11/23 10:40:35;;;;;;;147.98;51.83;;;8.60;99.90;;;;;;5026988;28;20205;-71
2023/11/23 10:43:03;;;;;;;141.88;51.80;;;8.60;99.90;;;;;;5027594;28;20068;-71
2023/11/23 10:45:35;;;;;;;151.40;59.35;;;8.60;99.90;;;;;;5020608;28;20052;-70
2023/11/23 10:48:03;;;;;;;123.80;44.72;;;8.60;99.90;;;;;;5026389;28;20071;-70
2023/11/23 10:50:33;;;;;;;125.88;50.00;;;8.60;99.90;;;;;;5024610;28;20071;-71
2023/11/23 10:53:02;;;;;;;132.93;52.10;;;8.60;99.90;;;;;;5024905;28;20693;-71
2023/11/23 10:55:29;;;;;;;140.98;53.33;;;8.60;99.90;;;;;;5018136;28;20055;-73
2023/11/23 10:58:09;;;;;;;140.20;53.38;;;8.60;99.90;;;;;;5030364;28;20110;-70
2023/11/23 11:00:37;;;;;;;111.53;45.50;;;8.70;99.90;;;;;;5021901;28;20828;-72
2023/11/23 11:03:07;;;;;;;140.10;54.60;;;8.70;99.90;;;;;;5014578;28;20045;-70
2023/11/23 11:05:36;;;;;;;140.38;56.67;;;8.70;99.90;;;;;;5021595;28;20083;-70
2023/11/23 11:08:07;;;;;;;141.15;55.45;;;8.70;99.90;;;;;;5023429;28;20132;-71
2023/11/23 11:10:40;;;;;;;154.30;58.25;;;8.70;99.90;;;;;;5022831;28;20448;-71
2023/11/23 11:13:10;;;;;;;135.98;54.78;;;8.70;99.90;;;;;;5025306;28;20056;-72
2023/11/23 11:15:51;;;;;;;132.77;53.50;;;8.70;99.90;;;;;;5022488;28;20045;-72
2023/11/23 11:18:29;;;;;;;156.65;57.85;;;8.70;99.90;;;;;;5024322;28;20071;-71
2023/11/23 11:21:08;;;;;;;135.43;53.75;;;8.70;99.90;;;;;;5023279;28;20508;-72
2023/11/23 11:24:15;;;;;;;145.27;54.83;;;8.70;99.90;;;;;;5022870;28;20045;-72
2023/11/23 11:26:42;;;;;;;158.07;53.88;;;8.70;99.90;;;;;;5019859;28;20037;-73
2023/11/23 11:29:11;;;;;;;150.95;53.47;;;8.70;99.90;;;;;;5022964;28;20056;-72
2023/11/23 11:31:40;;;;;;;158.85;58.60;;;8.70;99.90;;;;;;5014180;28;20098;-70
2023/11/23 11:34:20;;;;;;;141.63;52.15;;;8.70;99.90;;;;;;5024636;28;20063;-71
2023/11/23 11:36:59;;;;;;;126.32;49.42;;;8.70;99.90;;;;;;5018097;28;20048;-72
2023/11/23 11:39:36;;;;;;;146.68;55.75;;;8.70;99.90;;;;;;5019836;28;20439;-72
2023/11/23 11:42:04;;;;;;;127.95;51.42;;;8.70;99.90;;;;;;5008578;28;20127;-72
2023/11/23 11:44:35;;;;;;;136.98;51.60;;;8.70;99.90;;;;;;5020913;28;20110;-70
2023/11/23 11:47:04;;;;;;;141.50;52.72;;;8.70;99.90;;;;;;5019638;28;20121;-72
2023/11/23 11:49:31;;;;;;;148.10;59.40;;;8.70;99.90;;;;;;5023777;28;20044;-71
2023/11/23 11:51:58;;;;;;;147.60;55.33;;;8.70;99.90;;;;;;5028290;28;20506;-72
2023/11/23 11:54:25;;;;;;;151.55;55.63;;;8.70;99.90;;;;;;5012993;28;20056;-71
2023/11/23 11:56:53;;;;;;;153.35;56.13;;;8.80;99.90;;;;;;5020081;28;20052;-71
2023/11/23 11:59:21;;;;;;;173.82;61.17;;;8.80;99.90;;;;;;5025190;28;20053;-71
2023/11/23 12:01:48;;;;;;;131.85;52.88;;;8.80;99.90;;;;;;5025279;28;20095;-71
2023/11/23 12:04:17;;;;;;;146.55;56.22;;;8.80;99.90;;;;;;5008589;28;20041;-73
2023/11/23 12:06:45;;;;;;;172.68;60.90;;;8.80;99.90;;;;;;5025765;28;20041;-71
2023/11/23 12:09:14;;;;;;;154.52;56.47;;;8.80;99.90;;;;;;5028626;28;20131;-72
2023/11/23 12:11:43;;;;;;;144.35;55.08;;;8.80;99.90;;;;;;5024358;28;20124;-72
2023/11/23 12:14:11;;;;;;;144.48;54.75;;;8.80;99.90;;;;;;5033323;28;21627;-72
2023/11/23 12:16:38;;;;;;;144.20;55.75;;;8.80;99.90;;;;;;5019471;28;20048;-72
2023/11/23 12:19:20;;;;;;;144.50;53.50;;;8.80;99.90;;;;;;5028490;28;20106;-72
2023/11/23 12:21:58;;;;;;;151.63;57.08;;;8.80;99.90;;;;;;5028356;28;20079;-72
2023/11/23 12:24:30;;;;;;;122.93;49.80;;;8.80;99.90;;;;;;5023774;28;20045;-71
2023/11/23 12:26:57;;;;;;;142.65;55.03;;;8.80;99.90;;;;;;5028608;28;20048;-72
2023/11/23 12:29:26;;;;;;;115.78;45.20;;;8.80;99.90;;;;;;5029851;28;20823;-73
2023/11/23 12:31:53;;;;;;;141.20;53.53;;;8.80;99.90;;;;;;5002861;28;20055;-73
2023/11/23 12:34:20;;;;;;;155.13;54.17;;;8.80;99.90;;;;;;5024717;28;20079;-72